Latest Weather Observations for Hunters Hill

IDV60801

Issued at 2:02 pm EST Monday 1 May 2017 (issued every 30 minutes, with the page automatically refreshed every 10 minutes)

About weather observations | Map of weather stations | Latest weather observations for VIC | Other Formats
Station Details ID: 082139 Name: HUNTERS HILL Lat: -36.21 Lon: 147.54 Height: 981.0 m
Data from the previous 72 hours. | See also: Recent months at Hunters Hill
Date/Time
EST
Temp
°C
App
Temp
°C
Dew
Point
°C
Rel
Hum
%
Delta-T
°C
Wind Press
QNH
hPa
Press
MSL
hPa
Rain since
9am
mm
Dir  Spd
km/h
Gust
km/h
Spd
kts
Gust
kts
01/02:00pm 11.0 9.7 9.3 89 0.9 NW 6 13 3 7 - - 0.0
01/01:30pm 11.4 9.5 9.1 86 1.2 WNW 9 17 5 9 - - 0.0
01/01:00pm 11.6 10.3 9.2 85 1.3 NW 6 15 3 8 - - 0.0
01/12:30pm 11.6 9.6 8.8 83 1.5 NW 9 17 5 9 - - 0.0
01/12:00pm 11.8 10.7 9.9 88 1.0 NW 6 9 3 5 - - 0.0
01/11:30am 11.9 11.2 10.0 88 1.0 NW 4 11 2 6 - - 0.0
01/11:00am 11.4 10.7 10.1 92 0.7 NW 4 7 2 4 - - 0.0
01/10:30am 10.9 10.1 9.7 92 0.6 NNW 4 9 2 5 - - 0.0
01/10:00am 10.7 10.3 9.9 95 0.4 NNE 2 6 1 3 - - 0.0
01/09:30am 10.5 9.7 9.6 94 0.5 N 4 9 2 5 - - 0.0
01/09:00am 10.1 9.2 9.3 95 0.4 NNW 4 7 2 4 - - 0.0
01/08:30am 9.4 8.0 8.8 96 0.3 NNW 6 11 3 6 - - 0.0
01/08:00am 9.1 7.7 8.8 98 0.2 N 6 11 3 6 - - 0.0
01/07:30am 8.8 7.4 8.7 99 0.1 NNE 6 7 3 4 - - 0.0
01/07:00am 8.9 7.9 8.8 99 0.1 NNE 4 7 2 4 - - 0.0
01/06:30am 8.3 6.7 8.2 99 0.1 NNE 6 9 3 5 - - 0.0
01/06:00am 8.6 7.5 8.5 99 0.1 NNE 4 6 2 3 - - 0.0
01/05:30am 8.8 7.8 8.7 99 0.1 NNE 4 7 2 4 - - 0.0
01/05:00am 8.5 7.4 8.4 99 0.1 NNE 4 6 2 3 - - 0.0
01/04:30am 8.3 7.1 8.2 99 0.1 NNE 4 9 2 5 - - 0.0
01/04:00am 8.3 7.2 8.3 100 0.0 NNE 4 9 2 5 - - 0.0
01/03:30am 8.3 7.1 8.2 99 0.1 NNE 4 6 2 3 - - 0.0
01/03:00am 8.4 7.3 8.4 100 0.0 NNE 4 7 2 4 - - 0.0
01/02:30am 8.2 7.0 8.2 100 0.0 NNE 4 6 2 3 - - 0.0
01/02:00am 8.4 7.3 8.4 100 0.0 NNE 4 6 2 3 - - 0.0
01/01:30am 8.1 6.9 8.1 100 0.0 NNE 4 4 2 2 - - 0.0
01/01:00am 8.3 7.2 8.3 100 0.0 NNE 4 6 2 3 - - 0.0
01/12:30am 8.3 7.2 8.3 100 0.0 NNE 4 6 2 3 - - 0.0
01/12:00am 8.5 7.4 8.5 100 0.0 NNE 4 6 2 3 - - 0.0
 
Date/Time
EST
Temp
°C
App
Temp
°C
Dew
Point
°C
Rel
Hum
%
Delta-T
°C
Wind Press
QNH
hPa
Press
MSL
hPa
Rain since
9am
mm
Dir  Spd
km/h
Gust
km/h
Spd
kts
Gust
kts
30/11:30pm 8.6 7.5 8.6 100 0.0 NNE 4 6 2 3 - - 0.0
30/11:00pm 8.6 7.5 8.6 100 0.0 NNE 4 4 2 2 - - 0.0
30/10:30pm 8.9 7.9 8.9 100 0.0 NNE 4 6 2 3 - - 0.0
30/10:00pm 9.3 8.4 9.2 99 0.1 NNE 4 6 2 3 - - 0.0
30/09:30pm 9.8 8.9 9.2 96 0.3 NNE 4 7 2 4 - - 0.0
30/09:00pm 9.8 8.8 9.0 95 0.4 NNE 4 9 2 5 - - 0.0
30/08:30pm 10.2 8.8 9.0 92 0.6 NNE 6 9 3 5 - - 0.0
30/08:00pm 10.0 9.3 8.4 90 0.8 NNE 2 4 1 2 - - 0.0
30/07:30pm 10.2 9.0 8.0 86 1.1 N 4 7 2 4 - - 0.0
30/07:00pm 10.2 8.6 8.0 86 1.1 NNE 6 9 3 5 - - 0.0
30/06:30pm 10.2 9.4 8.1 87 1.1 NNE 2 4 1 2 - - 0.0
30/06:00pm 10.2 9.4 8.0 86 1.1 NNE 2 4 1 2 - - 0.0
30/05:30pm 10.7 9.5 7.9 83 1.4 NNE 4 4 2 2 - - 0.0
30/05:00pm 11.5 10.6 7.8 78 1.9 NNE 2 4 1 2 - - 0.0
30/04:30pm 12.8 11.2 7.9 72 2.5 NNE 6 7 3 4 - - 0.0
30/04:00pm 13.0 11.7 7.7 70 2.7 NNE 4 7 2 4 - - 0.0
30/03:30pm 13.0 11.7 7.5 69 2.8 NNE 4 6 2 3 - - 0.0
30/03:00pm 14.0 12.4 7.8 66 3.2 NNE 6 9 3 5 - - 0.0
30/02:30pm 13.8 12.4 7.1 64 3.4 N 4 9 2 5 - - 0.0
30/02:00pm 14.2 12.7 8.4 68 3.1 N 6 15 3 8 - - 0.0
30/01:30pm 14.1 12.5 7.9 66 3.2 N 6 13 3 7 - - 0.0
30/01:00pm 13.8 11.8 7.3 65 3.4 NNE 7 13 4 7 - - 0.0
30/12:30pm 14.2 12.5 8.4 68 3.1 NNE 7 17 4 9 - - 0.0
30/12:00pm 13.5 11.7 8.1 70 2.8 N 7 17 4 9 - - 0.0
30/11:30am 13.5 11.9 8.1 70 2.8 SW 6 13 3 7 - - 0.0
30/11:00am 13.5 12.7 9.7 78 2.1 SW 4 7 2 4 - - 0.0
30/10:30am 11.5 9.8 7.4 76 2.1 SW 6 11 3 6 - - 0.0
30/10:00am 11.9 11.3 9.1 83 1.5 SW 2 6 1 3 - - 0.0
30/09:30am 11.1 10.2 7.6 79 1.8 SW 2 6 1 3 - - 0.0
30/09:00am 10.2 9.8 9.7 97 0.3 SW 2 4 1 2 - - 0.2
30/08:30am 9.2 8.7 9.2 100 0.0 SW 2 4 1 2 - - 0.0
30/08:00am 8.2 7.4 8.2 100 0.0 SW 2 4 1 2 - - 0.0
30/07:30am 7.2 6.6 7.2 100 0.0 CALM 0 0 0 0 - - 0.0
30/07:00am 6.6 5.8 6.6 100 0.0 CALM 0 0 0 0 - - 0.0
30/06:30am 6.8 5.3 6.8 100 0.0 SW 4 4 2 2 - - 0.0
30/06:00am 6.8 6.1 6.8 100 0.0 CALM 0 2 0 1 - - 0.0
30/05:30am 7.0 5.5 7.0 100 0.0 SW 4 6 2 3 - - 0.0
30/05:00am 7.0 5.5 7.0 100 0.0 SW 4 6 2 3 - - 0.0
30/04:30am 7.0 5.5 7.0 100 0.0 SW 4 6 2 3 - - 0.0
30/04:00am 7.3 5.5 7.3 100 0.0 SW 6 6 3 3 - - 0.0
30/03:30am 7.4 5.7 7.4 100 0.0 SW 6 6 3 3 - - 0.0
30/03:00am 7.5 6.2 7.5 100 0.0 SW 4 6 2 3 - - 0.0
30/02:30am 7.6 6.3 7.6 100 0.0 SW 4 6 2 3 - - 0.0
30/02:00am 7.6 6.3 7.6 100 0.0 SW 4 6 2 3 - - 0.0
30/01:30am 7.6 6.3 7.6 100 0.0 SW 4 6 2 3 - - 0.0
30/01:00am 7.4 6.0 7.4 100 0.0 SW 4 6 2 3 - - 0.0
30/12:30am 7.8 6.9 7.8 100 0.0 SW 2 2 1 1 - - 0.0
30/12:00am 7.6 6.7 7.6 100 0.0 SW 2 4 1 2 - - 0.0
 
Date/Time
EST
Temp
°C
App
Temp
°C
Dew
Point
°C
Rel
Hum
%
Delta-T
°C
Wind Press
QNH
hPa
Press
MSL
hPa
Rain since
9am
mm
Dir  Spd
km/h
Gust
km/h
Spd
kts
Gust
kts
29/11:30pm 8.3 7.9 8.3 100 0.0 CALM 0 2 0 1 - - 0.0
29/11:00pm 8.4 7.3 8.4 100 0.0 SW 4 6 2 3 - - 0.0
29/10:30pm 8.3 7.5 8.3 100 0.0 SW 2 4 1 2 - - 0.0
29/10:00pm 8.4 8.0 8.4 100 0.0 CALM 0 4 0 2 - - 0.0
29/09:30pm 8.6 7.9 8.6 100 0.0 SW 2 2 1 1 - - 0.0
29/09:00pm 8.7 7.7 8.7 100 0.0 SW 4 6 2 3 - - 0.0
29/08:30pm 8.9 7.9 8.9 100 0.0 SW 4 9 2 5 - - 0.0
29/08:00pm 8.7 7.7 8.7 100 0.0 SW 4 7 2 4 - - 0.0
29/07:30pm 8.9 7.5 8.9 100 0.0 SW 6 7 3 4 - - 0.0
29/07:00pm 8.6 7.9 8.6 100 0.0 SW 2 6 1 3 - - 0.0
29/06:30pm 8.7 7.3 8.7 100 0.0 SW 6 7 3 4 - - 0.0
29/06:00pm 8.6 7.5 8.6 100 0.0 SW 4 6 2 3 - - 0.0
29/05:30pm 8.8 7.2 8.8 100 0.0 SW 7 9 4 5 - - 0.0
29/05:00pm 9.5 8.1 9.4 99 0.1 SSW 7 13 4 7 - - 0.0
29/04:30pm 10.2 9.1 9.9 98 0.2 SSW 6 9 3 5 - - 0.0
29/04:00pm 10.3 9.6 10.1 99 0.1 SSW 4 9 2 5 - - 0.0
29/03:30pm 10.0 9.6 9.7 98 0.2 SSW 2 4 1 2 - - 0.0
29/03:00pm 10.2 9.3 9.4 95 0.4 SSW 4 6 2 3 - - 0.0
29/02:30pm 10.3 9.3 8.9 91 0.7 SSW 4 9 2 5 - - 0.0
29/02:00pm 10.3 8.9 8.7 90 0.8 SW 6 9 3 5 - - 0.0
29/01:30pm 10.2 9.1 8.5 89 0.9 SSW 4 9 2 5 - - 0.0
29/01:00pm 9.9 8.2 8.3 90 0.8 WSW 7 11 4 6 - - 0.0
29/12:30pm 11.4 10.6 9.8 90 0.9 WNW 4 9 2 5 - - 0.0
29/12:00pm 10.9 9.6 9.3 90 0.8 SW 6 9 3 5 - - 0.0
29/11:30am 10.5 9.6 9.3 92 0.6 WSW 4 9 2 5 - - 0.0
29/11:00am 9.8 9.0 9.7 99 0.1 W 4 7 2 4 - - 0.0
29/10:30am 9.5 8.7 9.5 100 0.0 SW 4 7 2 4 - - 0.0
29/10:00am 8.8 8.2 8.8 100 0.0 W 2 6 1 3 - - 0.0
29/09:30am 8.3 7.2 8.3 100 0.0 WSW 4 6 2 3 - - 0.0
29/09:00am 8.0 6.8 8.0 100 0.0 WSW 4 6 2 3 - - 0.0
29/08:30am 7.7 6.8 7.7 100 0.0 WSW 2 6 1 3 - - 0.0
29/08:00am 7.5 6.2 7.5 100 0.0 WSW 4 6 2 3 - - 0.0
29/07:30am 7.3 5.9 7.3 100 0.0 WSW 4 7 2 4 - - 0.0
29/07:00am 6.5 5.3 6.5 100 0.0 WSW 2 4 1 2 - - 0.0
29/06:30am 6.1 4.8 6.1 100 0.0 WSW 2 4 1 2 - - 0.0
29/06:00am 6.2 4.9 6.2 100 0.0 WSW 2 4 1 2 - - 0.0
29/05:30am 6.1 4.8 6.1 100 0.0 WSW 2 4 1 2 - - 0.0
29/05:00am 6.1 5.2 6.1 100 0.0 CALM 0 2 0 1 - - 0.0
29/04:30am 6.0 5.1 6.0 100 0.0 CALM 0 2 0 1 - - 0.0
29/04:00am 6.2 5.3 6.2 100 0.0 CALM 0 2 0 1 - - 0.0
29/03:30am 6.1 5.2 6.1 100 0.0 CALM 0 0 0 0 - - 0.0
29/03:00am 6.3 4.7 6.3 100 0.0 WSW 4 7 2 4 - - 0.0
29/02:30am 6.5 4.9 6.5 100 0.0 W 4 7 2 4 - - 0.0
29/02:00am 6.4 4.4 6.4 100 0.0 WSW 6 9 3 5 - - 0.0
29/01:30am 7.0 5.2 7.0 100 0.0 W 6 13 3 7 - - 0.0
29/01:00am 6.9 5.0 6.9 100 0.0 WSW 6 9 3 5 - - 0.0
29/12:30am 6.7 5.2 6.7 100 0.0 WSW 4 9 2 5 - - 0.0
29/12:00am 7.5 6.2 7.5 100 0.0 WSW 4 7 2 4 - - 0.0
 
Date/Time
EST
Temp
°C
App
Temp
°C
Dew
Point
°C
Rel
Hum
%
Delta-T
°C
Wind Press
QNH
hPa
Press
MSL
hPa
Rain since
9am
mm
Dir  Spd
km/h
Gust
km/h
Spd
kts
Gust
kts
28/11:30pm 7.5 6.1 7.4 99 0.0 WSW 4 6 2 3 - - 0.0
28/11:00pm 7.7 6.4 7.6 99 0.0 WSW 4 7 2 4 - - 0.0
28/10:30pm 7.7 6.4 7.6 99 0.0 WSW 4 6 2 3 - - 0.0
28/10:00pm 7.6 5.9 7.5 99 0.0 W 6 9 3 5 - - 0.0
28/09:30pm 7.2 5.4 7.1 99 0.0 W 6 9 3 5 - - 0.0
28/09:00pm 7.0 5.0 6.9 99 0.0 WSW 7 15 4 8 - - 0.0
28/08:30pm 6.7 4.2 6.6 99 0.0 WSW 9 13 5 7 - - 0.0
28/08:00pm 6.7 4.2 6.6 99 0.0 WSW 9 15 5 8 - - 0.0
28/07:30pm 6.8 4.3 6.4 97 0.2 WSW 9 17 5 9 - - 0.0
28/07:00pm 6.6 3.9 5.7 94 0.4 W 9 13 5 7 - - 0.0
28/06:30pm 6.6 4.1 4.9 89 0.8 WSW 7 13 4 7 - - 0.0
28/06:00pm 6.7 4.3 5.3 91 0.7 WSW 7 9 4 5 - - 0.0
28/05:30pm 7.4 5.1 5.5 88 0.9 WSW 7 13 4 7 - - 0.0
28/05:00pm 8.3 5.7 5.9 85 1.2 W 9 15 5 8 - - 0.0
28/04:30pm 9.5 6.9 6.2 80 1.6 W 9 15 5 8 - - 0.0
28/04:00pm 10.4 7.8 6.0 74 2.2 W 9 17 5 9 - - 0.0
28/03:30pm 10.8 8.5 5.8 71 2.4 NW 7 11 4 6 - - 0.0
28/03:00pm 10.7 8.3 5.3 69 2.6 NW 7 13 4 7 - - 0.0
28/02:30pm 11.0 8.9 6.0 71 2.5 NW 6 11 3 6 - - 0.0

Other Formats:

Comma delimited format used in spreadsheet applications
http://www.bom.gov.au/fwo/IDV60801/IDV60801.94878.axf

JavaScript Object Notation format (JSON) in row-major order
http://www.bom.gov.au/fwo/IDV60801/IDV60801.94878.json